Time;durP1;ratioP1;P1;durP2;ratioP2;P2;SDS_P1;SDS_P2;PMS_P1;PMS_P2;Temp;Humidity;BMP_temperature;BMP_pressure;BME280_temperature;BME280_humidity;BME280_pressure;Samples;Min_cycle;Max_cycle;Signal;HPM_P1;HPM_P2
2021/01/24 00:00:06;;;;;;;45.53;26.90;;;;;;;3.03;100.00;97023.09;2080647;28;20246;-72
2021/01/24 00:01:13;;;;;;;47.05;27.92;;;;;;;2.94;100.00;97011.72;2079972;28;20709;-71
2021/01/24 00:02:15;;;;;;;45.73;26.57;;;;;;;2.98;100.00;97025.09;2079488;28;20593;-71
2021/01/24 00:03:17;;;;;;;40.33;26.50;;;;;;;3.02;100.00;97026.81;2079507;28;20298;-72
2021/01/24 00:04:18;;;;;;;46.60;27.95;;;;;;;3.00;100.00;97028.97;2079640;28;20222;-72
2021/01/24 00:05:20;;;;;;;45.03;26.60;;;;;;;2.94;100.00;97026.75;2080424;28;20215;-72
2021/01/24 00:06:20;;;;;;;44.20;27.60;;;;;;;2.97;100.00;97031.44;2080532;28;20715;-71
2021/01/24 00:07:22;;;;;;;51.63;28.37;;;;;;;2.98;100.00;97027.72;2080362;28;20246;-71
2021/01/24 00:08:23;;;;;;;50.13;27.15;;;;;;;3.03;100.00;97038.91;2077860;28;20570;-72
2021/01/24 00:09:24;;;;;;;50.70;30.43;;;;;;;2.97;100.00;97029.59;2080422;28;20223;-71
2021/01/24 00:10:25;;;;;;;52.30;30.17;;;;;;;2.98;100.00;97027.72;2080262;28;20285;-72
2021/01/24 00:11:26;;;;;;;49.73;29.40;;;;;;;2.97;100.00;97018.28;2079627;28;20788;-71
2021/01/24 00:12:27;;;;;;;46.33;28.23;;;;;;;2.99;100.00;97022.16;2080008;28;20227;-72
2021/01/24 00:13:28;;;;;;;50.20;29.80;;;;;;;3.00;100.00;97020.31;2079716;28;20230;-72
2021/01/24 00:14:29;;;;;;;54.58;31.02;;;;;;;2.97;100.00;97015.63;2079593;28;20303;-71
2021/01/24 00:15:30;;;;;;;53.67;32.60;;;;;;;2.90;100.00;97004.72;2079710;28;20230;-72
2021/01/24 00:16:31;;;;;;;56.38;33.03;;;;;;;2.96;100.00;97009.59;2079484;28;20777;-72
2021/01/24 00:17:33;;;;;;;53.43;33.40;;;;;;;2.89;100.00;96996.03;2079646;28;20568;-72
2021/01/24 00:18:34;;;;;;;67.18;41.30;;;;;;;2.89;100.00;96990.78;2080227;28;20709;-71
2021/01/24 00:19:36;;;;;;;77.60;47.70;;;;;;;2.96;100.00;97000.91;2079711;28;20745;-71
2021/01/24 00:20:36;;;;;;;81.32;47.63;;;;;;;2.92;100.00;97005.97;2079124;28;20643;-74
2021/01/24 00:21:38;;;;;;;82.57;47.83;;;;;;;2.92;100.00;97005.19;2079421;28;20250;-72
2021/01/24 00:22:39;;;;;;;84.68;49.72;;;;;;;2.89;100.00;96996.03;2079637;28;20223;-71
2021/01/24 00:23:40;;;;;;;71.17;46.07;;;;;;;2.87;100.00;96992.94;2079499;28;20737;-71
2021/01/24 00:24:41;;;;;;;80.20;47.78;;;;;;;2.89;100.00;96990.00;2079605;28;20706;-71
2021/01/24 00:25:43;;;;;;;76.10;45.20;;;;;;;2.86;100.00;96982.66;2079787;28;20654;-72
2021/01/24 00:26:43;;;;;;;56.17;33.10;;;;;;;2.84;100.00;96991.66;2079325;28;20306;-71
2021/01/24 00:27:45;;;;;;;58.53;34.63;;;;;;;2.76;100.00;96968.66;2087691;28;20233;-71
2021/01/24 00:28:46;;;;;;;53.95;33.25;;;;;;;2.75;100.00;96975.00;2096129;28;20288;-72
2021/01/24 00:29:47;;;;;;;47.83;29.77;;;;;;;2.78;100.00;96979.69;2080435;28;20277;-72
2021/01/24 00:30:48;;;;;;;51.47;30.27;;;;;;;2.72;100.00;96972.97;2080265;28;20306;-71
2021/01/24 00:31:49;;;;;;;53.03;30.73;;;;;;;2.75;100.00;96974.22;2080441;28;20690;-71
2021/01/24 00:32:50;;;;;;;57.75;32.33;;;;;;;2.76;100.00;96979.19;2080319;28;20310;-72
2021/01/24 00:33:52;;;;;;;57.13;31.47;;;;;;;2.68;100.00;96976.47;2080234;28;20227;-71
2021/01/24 00:34:53;;;;;;;57.42;31.60;;;;;;;2.76;100.00;96979.19;2079108;28;20307;-72
2021/01/24 00:35:55;;;;;;;50.40;30.10;;;;;;;2.67;100.00;96967.78;2071235;28;20234;-71
2021/01/24 00:36:55;;;;;;;48.60;29.67;;;;;;;2.73;100.00;96977.16;2079614;28;20764;-71
2021/01/24 00:37:57;;;;;;;53.10;30.70;;;;;;;2.70;100.00;96975.13;2081504;28;22057;-71
2021/01/24 00:38:57;;;;;;;52.33;30.67;;;;;;;2.75;100.00;96974.22;2081116;28;20230;-71
2021/01/24 00:39:59;;;;;;;51.97;30.23;;;;;;;2.72;100.00;96972.97;2081170;28;20219;-71
2021/01/24 00:41:04;;;;;;;47.90;30.00;;;;;;;2.72;100.00;96965.06;2081985;28;20276;-71
2021/01/24 00:42:05;;;;;;;55.03;31.75;;;;;;;2.71;100.00;96973.25;2081866;28;20289;-72
2021/01/24 00:43:07;;;;;;;58.42;32.75;;;;;;;2.68;100.00;96971.97;2080668;28;20330;-73
2021/01/24 00:44:08;;;;;;;60.03;32.80;;;;;;;2.68;100.00;96971.97;2081329;28;20231;-71
2021/01/24 00:45:10;;;;;;;56.78;32.42;;;;;;;2.65;100.00;96963.91;2081820;28;20575;-71
2021/01/24 00:46:11;;;;;;;56.65;31.83;;;;;;;2.64;100.00;96968.41;2097607;28;20275;-71
2021/01/24 00:47:14;;;;;;;52.75;32.92;;;;;;;2.61;100.00;96962.97;2097452;28;20233;-71
2021/01/24 00:48:15;;;;;;;52.85;31.70;;;;;;;2.58;100.00;96960.91;2082016;28;20219;-70
2021/01/24 00:49:17;;;;;;;55.58;32.63;;;;;;;2.56;100.00;96955.94;2081946;28;20357;-71
2021/01/24 00:50:18;;;;;;;53.35;32.20;;;;;;;2.55;100.00;96954.38;2081807;28;20243;-71
2021/01/24 00:51:19;;;;;;;54.63;31.65;;;;;;;2.53;100.00;96951.28;2080953;28;20243;-71
2021/01/24 00:52:21;;;;;;;54.15;32.92;;;;;;;2.47;100.00;96947.19;2072913;28;20687;-70
2021/01/24 00:53:22;;;;;;;50.60;29.42;;;;;;;2.55;100.00;96946.47;2072296;28;20314;-73
2021/01/24 00:54:23;;;;;;;52.40;30.67;;;;;;;2.49;100.00;96948.44;2081098;28;20227;-71
2021/01/24 00:55:24;;;;;;;49.60;31.38;;;;;;;2.47;100.00;96953.22;2081013;28;20223;-70
2021/01/24 00:56:25;;;;;;;56.80;31.27;;;;;;;2.49;100.00;96952.91;2081014;28;20228;-71
2021/01/24 00:57:26;;;;;;;50.00;30.30;;;;;;;2.50;100.00;96951.84;2081521;28;20254;-70
2021/01/24 00:58:28;;;;;;;64.50;34.07;;;;;;;2.47;100.00;96944.53;2081930;28;20231;-71
2021/01/24 00:59:28;;;;;;;53.85;32.13;;;;;;;2.44;100.00;96945.16;2081000;28;20242;-71
2021/01/24 01:00:30;;;;;;;51.43;31.37;;;;;;;2.41;100.00;96943.09;2081172;28;20226;-70
2021/01/24 01:01:31;;;;;;;52.72;31.98;;;;;;;2.44;100.00;96947.78;2081897;28;20215;-71
2021/01/24 01:02:32;;;;;;;52.47;32.73;;;;;;;2.36;100.00;96945.84;2080877;28;20378;-71
2021/01/24 01:03:33;;;;;;;56.90;31.83;;;;;;;2.41;100.00;96957.03;2081310;28;20603;-71
2021/01/24 01:04:35;;;;;;;52.23;32.13;;;;;;;2.40;100.00;96952.84;2072873;28;20243;-71
2021/01/24 01:05:36;;;;;;;53.83;32.50;;;;;;;2.39;100.00;96950.50;2080969;28;20310;-77
2021/01/24 01:06:37;;;;;;;53.57;32.00;;;;;;;2.44;100.00;96958.31;2080528;28;20223;-75
2021/01/24 01:07:38;;;;;;;55.03;33.35;;;;;;;2.41;100.00;96959.66;2072928;28;20459;-75
2021/01/24 01:08:40;;;;;;;56.80;33.00;;;;;;;2.35;100.00;96949.53;2080736;28;20671;-72
2021/01/24 01:09:40;;;;;;;56.13;32.67;;;;;;;2.36;100.00;96957.13;2088959;28;20277;-73
2021/01/24 01:10:43;;;;;;;52.53;32.77;;;;;;;2.35;100.00;96952.94;2080883;28;20249;-73
2021/01/24 01:11:43;;;;;;;59.42;33.60;;;;;;;2.33;100.00;96954.28;2081040;28;20584;-73
2021/01/24 01:12:45;;;;;;;57.90;32.13;;;;;;;2.31;100.00;96944.06;2080859;28;20223;-73
2021/01/24 01:13:46;;;;;;;56.20;32.20;;;;;;;2.33;100.00;96946.41;2080641;28;20278;-74
2021/01/24 01:14:47;;;;;;;54.47;32.67;;;;;;;2.32;100.00;96940.38;2072623;28;20304;-71
2021/01/24 01:15:48;;;;;;;59.53;34.53;;;;;;;2.30;100.00;96936.47;2080902;28;20227;-71
2021/01/24 01:16:49;;;;;;;54.72;33.03;;;;;;;2.22;100.00;96930.81;2080815;28;20243;-71
2021/01/24 01:17:50;;;;;;;52.95;32.58;;;;;;;2.29;100.00;96930.44;2080858;28;20235;-71
2021/01/24 01:18:51;;;;;;;58.67;32.17;;;;;;;2.33;100.00;96933.25;2080858;28;20216;-71
2021/01/24 01:19:53;;;;;;;61.63;34.38;;;;;;;2.30;100.00;96931.22;2080544;28;20266;-72
2021/01/24 01:20:54;;;;;;;59.33;34.13;;;;;;;2.28;100.00;96933.38;2081766;28;20230;-71
2021/01/24 01:21:55;;;;;;;56.85;33.90;;;;;;;2.27;100.00;96937.84;2080885;28;20708;-72
2021/01/24 01:22:56;;;;;;;53.13;31.23;;;;;;;2.24;100.00;96931.31;2081037;28;20586;-71
2021/01/24 01:23:57;;;;;;;62.47;33.60;;;;;;;2.20;100.00;96930.34;2081647;28;20312;-72
2021/01/24 01:24:59;;;;;;;56.77;33.73;;;;;;;2.18;100.00;96919.34;2080572;28;20235;-71
2021/01/24 01:25:59;;;;;;;60.47;35.00;;;;;;;2.21;100.00;96928.50;2081025;28;20310;-71
2021/01/24 01:27:01;;;;;;;57.10;33.57;;;;;;;2.23;100.00;96936.88;2080784;28;20215;-71
2021/01/24 01:28:02;;;;;;;63.45;36.08;;;;;;;2.20;100.00;96930.34;2080924;28;20310;-72
2021/01/24 01:29:04;;;;;;;56.70;33.67;;;;;;;2.24;100.00;96926.03;2081619;28;20223;-71
2021/01/24 01:30:06;;;;;;;53.65;33.63;;;;;;;2.22;100.00;96930.81;2080967;28;20503;-72
2021/01/24 01:31:07;;;;;;;56.38;33.55;;;;;;;2.18;100.00;96921.97;2072354;28;20223;-74
2021/01/24 01:32:08;;;;;;;58.47;33.33;;;;;;;2.24;100.00;96922.63;2080804;28;20273;-71
2021/01/24 01:33:09;;;;;;;54.07;32.97;;;;;;;2.23;100.00;96932.38;2080796;28;20231;-72
2021/01/24 01:34:10;;;;;;;57.10;33.95;;;;;;;2.18;100.00;96927.25;2072677;28;20235;-72
2021/01/24 01:35:12;;;;;;;59.27;35.00;;;;;;;2.17;100.00;96924.88;2080911;28;20227;-71
2021/01/24 01:36:13;;;;;;;55.10;33.67;;;;;;;2.15;100.00;96924.41;2080706;28;20318;-71
2021/01/24 01:37:14;;;;;;;54.27;32.13;;;;;;;2.12;100.00;96927.63;2072626;28;20220;-71
2021/01/24 01:38:15;;;;;;;51.20;32.78;;;;;;;2.12;100.00;96928.41;2072647;28;20224;-72
2021/01/24 01:39:17;;;;;;;60.97;33.37;;;;;;;2.15;100.00;96935.69;2080732;28;20230;-72
2021/01/24 01:40:18;;;;;;;57.15;34.20;;;;;;;2.13;100.00;96934.44;2081582;28;20228;-71
2021/01/24 01:41:19;;;;;;;57.30;32.72;;;;;;;2.13;100.00;96931.81;2080653;28;20233;-72
2021/01/24 01:42:20;;;;;;;61.07;33.33;;;;;;;2.10;100.00;96940.31;2080465;28;20230;-71
2021/01/24 01:43:21;;;;;;;54.10;33.97;;;;;;;2.07;100.00;96938.25;2080820;28;20577;-71
2021/01/24 01:44:22;;;;;;;51.58;34.03;;;;;;;2.07;100.00;96940.88;2081085;28;20220;-71
2021/01/24 01:45:23;;;;;;;55.70;33.63;;;;;;;2.08;100.00;96945.06;2080489;28;20223;-71
2021/01/24 01:46:26;;;;;;;59.70;34.25;;;;;;;2.05;100.00;96941.16;2080577;28;20380;-71
2021/01/24 01:47:28;;;;;;;52.53;32.58;;;;;;;2.06;100.00;96941.94;2080505;28;20310;-71
2021/01/24 01:48:30;;;;;;;53.72;33.72;;;;;;;2.07;100.00;96944.28;2080839;28;20601;-71
2021/01/24 01:49:31;;;;;;;61.22;36.15;;;;;;;2.07;100.00;96939.00;2079649;28;20223;-71
2021/01/24 01:50:33;;;;;;;54.50;34.00;;;;;;;2.08;100.00;96939.78;2080663;28;20299;-71
2021/01/24 01:51:34;;;;;;;57.22;33.38;;;;;;;2.09;100.00;96950.03;2080631;28;20215;-72
2021/01/24 01:52:35;;;;;;;62.38;37.05;;;;;;;2.09;100.00;96946.63;2080418;28;20231;-71
2021/01/24 01:53:37;;;;;;;55.03;33.43;;;;;;;2.06;100.00;96942.72;2080816;28;20228;-70
2021/01/24 01:54:37;;;;;;;57.25;34.50;;;;;;;2.08;100.00;96942.41;2078000;28;20373;-72
2021/01/24 01:55:39;;;;;;;49.10;32.80;;;;;;;2.04;100.00;96933.56;2080838;28;20227;-72
2021/01/24 01:56:40;;;;;;;55.10;33.20;;;;;;;2.08;100.00;96931.91;2081539;28;20314;-71
2021/01/24 01:57:42;;;;;;;60.33;35.23;;;;;;;2.11;100.00;96928.69;2080273;28;20235;-71
2021/01/24 01:58:43;;;;;;;52.03;32.67;;;;;;;2.06;100.00;96920.91;2080534;28;20220;-71
2021/01/24 01:59:44;;;;;;;51.93;33.83;;;;;;;2.12;100.00;96932.88;2080533;28;20223;-71
2021/01/24 02:00:48;;;;;;;49.78;32.38;;;;;;;2.13;100.00;96929.19;2080298;28;20235;-71
2021/01/24 02:01:57;;;;;;;54.75;33.30;;;;;;;2.13;100.00;96929.19;2080938;28;20234;-72
2021/01/24 02:03:09;;;;;;;57.00;34.13;;;;;;;2.11;100.00;96923.44;2085366;28;20306;-71
2021/01/24 02:04:15;;;;;;;58.08;34.75;;;;;;;2.10;100.00;96925.28;2080975;28;20219;-71
2021/01/24 02:05:21;;;;;;;61.40;33.90;;;;;;;2.10;100.00;96925.28;2081409;28;20254;-72
2021/01/24 02:06:28;;;;;;;53.15;33.63;;;;;;;2.04;100.00;96913.31;2081010;28;20310;-73
2021/01/24 02:07:33;;;;;;;59.78;34.28;;;;;;;2.09;100.00;96921.13;2081178;28;20276;-71
2021/01/24 02:08:40;;;;;;;56.88;33.50;;;;;;;2.09;100.00;96917.72;2080374;28;20230;-72
2021/01/24 02:09:44;;;;;;;59.38;34.45;;;;;;;2.11;100.00;96920.81;2079947;28;20698;-71
2021/01/24 02:10:51;;;;;;;55.97;33.38;;;;;;;2.11;100.00;96915.56;2080666;28;20219;-71
2021/01/24 02:11:56;;;;;;;57.58;32.20;;;;;;;2.12;100.00;96912.63;2080090;28;20308;-72
2021/01/24 02:13:01;;;;;;;60.22;33.72;;;;;;;2.13;100.00;96916.81;2080678;28;20310;-71
2021/01/24 02:14:09;;;;;;;57.63;32.33;;;;;;;2.12;100.00;96920.50;2081279;28;20215;-71
2021/01/24 02:15:15;;;;;;;55.20;32.90;;;;;;;2.11;100.00;96913.69;2078826;28;20225;-71
2021/01/24 02:16:17;;;;;;;60.53;36.17;;;;;;;2.11;100.00;96913.69;2081271;28;20219;-72
2021/01/24 02:17:18;;;;;;;58.08;35.35;;;;;;;2.09;100.00;96915.06;2080339;28;20223;-71
2021/01/24 02:18:20;;;;;;;56.88;33.97;;;;;;;2.10;100.00;96914.00;2080412;28;20756;-71
2021/01/24 02:19:25;;;;;;;55.55;34.30;;;;;;;2.07;100.00;96907.44;2080475;28;20748;-71
2021/01/24 02:20:30;;;;;;;54.60;34.10;;;;;;;2.10;100.00;96914.78;2080097;28;20230;-71
2021/01/24 02:21:33;;;;;;;57.60;35.20;;;;;;;2.05;100.00;96914.88;2080344;28;20697;-71
2021/01/24 02:22:36;;;;;;;58.05;34.33;;;;;;;2.11;100.00;96921.59;2080811;28;20227;-71
2021/01/24 02:23:39;;;;;;;57.95;32.08;;;;;;;2.12;100.00;96920.50;2074081;28;20736;-71
2021/01/24 02:24:43;;;;;;;56.10;33.40;;;;;;;2.13;100.00;96924.69;2079246;28;20226;-71
2021/01/24 02:25:47;;;;;;;55.95;33.33;;;;;;;2.10;100.00;96921.88;2081226;28;20254;-71
2021/01/24 02:26:55;;;;;;;52.25;31.92;;;;;;;2.11;100.00;96918.97;2081095;28;20246;-71
2021/01/24 02:28:02;;;;;;;55.00;34.17;;;;;;;2.15;100.00;96917.28;2080785;28;20227;-71
2021/01/24 02:29:08;;;;;;;53.05;33.15;;;;;;;2.12;100.00;96910.00;2081129;28;20714;-71
2021/01/24 02:30:23;;;;;;;49.50;32.28;;;;;;;2.16;100.00;96920.69;2078751;28;20239;-72
2021/01/24 02:31:26;;;;;;;55.38;33.03;;;;;;;2.06;100.00;96900.63;2080724;28;20284;-72
2021/01/24 02:32:27;;;;;;;53.03;32.78;;;;;;;2.06;100.00;96900.63;2081042;28;20292;-71
2021/01/24 02:33:30;;;;;;;51.83;32.38;;;;;;;2.12;100.00;96904.75;2080200;28;20219;-71
2021/01/24 02:34:33;;;;;;;58.30;32.83;;;;;;;2.21;100.00;96913.50;2080405;28;20286;-72
2021/01/24 02:35:37;;;;;;;55.85;33.40;;;;;;;2.20;100.00;96911.94;2081109;28;20277;-71
2021/01/24 02:36:38;;;;;;;53.60;32.53;;;;;;;2.21;100.00;96913.50;2079923;28;20233;-71
2021/01/24 02:37:41;;;;;;;55.25;33.10;;;;;;;2.22;100.00;96906.38;2080302;28;20227;-71
2021/01/24 02:38:43;;;;;;;57.83;34.53;;;;;;;2.21;100.00;96902.97;2080154;28;20694;-72
2021/01/24 02:39:44;;;;;;;50.25;31.73;;;;;;;2.25;100.00;96906.56;2080130;28;20242;-71
2021/01/24 02:40:46;;;;;;;54.95;31.58;;;;;;;2.22;100.00;96898.47;2080975;28;20220;-71
2021/01/24 02:41:47;;;;;;;55.60;33.83;;;;;;;2.28;100.00;96909.69;2080110;28;20570;-72
2021/01/24 02:42:50;;;;;;;57.50;33.53;;;;;;;2.28;100.00;96914.94;2080025;28;20230;-72
2021/01/24 02:43:51;;;;;;;55.30;33.30;;;;;;;2.28;100.00;96920.22;2080139;28;20595;-72
2021/01/24 02:44:53;;;;;;;52.95;32.65;;;;;;;2.28;100.00;96917.59;2071656;28;20228;-72
2021/01/24 02:45:55;;;;;;;53.58;31.38;;;;;;;2.23;100.00;96906.06;2084695;28;20667;-72
2021/01/24 02:46:57;;;;;;;57.47;33.30;;;;;;;2.28;100.00;96918.38;2096759;28;20226;-72
2021/01/24 02:47:58;;;;;;;53.22;32.17;;;;;;;2.27;100.00;96911.53;2080794;28;20561;-72
2021/01/24 02:49:00;;;;;;;54.25;30.63;;;;;;;2.26;100.00;96916.03;2080138;28;20226;-73
2021/01/24 02:50:02;;;;;;;54.17;31.98;;;;;;;2.24;100.00;96909.47;2080198;28;20220;-72
2021/01/24 02:51:04;;;;;;;57.10;32.30;;;;;;;2.28;100.00;96907.84;2080182;28;20572;-72
2021/01/24 02:52:05;;;;;;;63.42;34.03;;;;;;;2.29;100.00;96917.28;2080191;28;20219;-71
2021/01/24 02:53:07;;;;;;;55.65;33.45;;;;;;;2.29;100.00;96917.28;2072090;28;20733;-73
2021/01/24 02:54:09;;;;;;;60.58;33.47;;;;;;;2.34;100.00;96906.63;2063450;28;20221;-72
2021/01/24 02:55:11;;;;;;;51.53;32.97;;;;;;;2.34;100.00;96913.75;2071954;28;20227;-73
2021/01/24 02:56:12;;;;;;;55.13;33.72;;;;;;;2.40;100.00;96912.59;2072638;28;20239;-72
2021/01/24 02:57:14;;;;;;;53.47;33.07;;;;;;;2.39;100.00;96895.25;2071717;28;20232;-72
2021/01/24 02:58:15;;;;;;;56.58;34.70;;;;;;;2.37;100.00;96906.06;2071717;28;20224;-72
2021/01/24 02:59:16;;;;;;;59.10;33.13;;;;;;;2.41;100.00;96906.25;2072813;28;20224;-72
2021/01/24 03:00:18;;;;;;;58.78;35.10;;;;;;;2.39;100.00;96898.66;2071730;28;20246;-72
2021/01/24 03:01:21;;;;;;;56.70;35.13;;;;;;;2.37;100.00;96900.81;2072003;28;20247;-72
2021/01/24 03:02:21;;;;;;;57.90;34.13;;;;;;;2.39;100.00;96897.88;2071423;28;20722;-74
2021/01/24 03:03:23;;;;;;;55.00;33.57;;;;;;;2.35;100.00;96883.75;2071860;28;20278;-73
2021/01/24 03:04:24;;;;;;;63.35;34.55;;;;;;;2.39;100.00;96888.13;2072394;28;20304;-72
2021/01/24 03:05:25;;;;;;;56.87;33.80;;;;;;;2.42;100.00;96886.75;2072712;28;20264;-72
2021/01/24 03:06:26;;;;;;;63.55;34.72;;;;;;;2.46;100.00;96891.13;2072774;28;20718;-72
2021/01/24 03:07:28;;;;;;;60.43;35.53;;;;;;;2.47;100.00;96878.75;2072712;28;20228;-73
2021/01/24 03:08:29;;;;;;;58.88;35.28;;;;;;;2.40;100.00;96883.63;2072668;28;20327;-72
2021/01/24 03:09:30;;;;;;;56.80;35.40;;;;;;;2.44;100.00;96890.66;2071648;28;20227;-72
2021/01/24 03:10:31;;;;;;;57.60;33.88;;;;;;;2.37;100.00;96885.03;2071858;28;20238;-72
2021/01/24 03:11:34;;;;;;;56.13;35.03;;;;;;;2.36;100.00;96890.59;2072031;28;20224;-72
2021/01/24 03:12:39;;;;;;;57.67;33.42;;;;;;;2.34;100.00;96890.06;2072003;28;20235;-73
2021/01/24 03:13:43;;;;;;;60.90;33.80;;;;;;;2.31;100.00;96878.28;2071418;28;20235;-71
2021/01/24 03:14:44;;;;;;;63.35;35.33;;;;;;;2.25;100.00;96872.34;2071741;28;20678;-72
2021/01/24 03:15:47;;;;;;;54.87;34.73;;;;;;;2.34;100.00;96887.44;2071935;28;20575;-72
2021/01/24 03:16:49;;;;;;;59.17;34.95;;;;;;;2.26;100.00;96883.69;2071885;28;20289;-72
2021/01/24 03:17:51;;;;;;;61.05;36.67;;;;;;;2.30;100.00;96889.91;2071939;28;20220;-73
2021/01/24 03:18:52;;;;;;;55.80;35.97;;;;;;;2.30;100.00;96889.91;2071259;28;20231;-73
2021/01/24 03:19:54;;;;;;;60.78;35.70;;;;;;;2.30;100.00;96881.22;2071744;28;20231;-71
2021/01/24 03:20:56;;;;;;;56.60;34.55;;;;;;;2.33;100.00;96885.88;2079794;28;20313;-72
2021/01/24 03:21:58;;;;;;;57.95;34.42;;;;;;;2.33;100.00;96884.03;2072482;28;20231;-73
2021/01/24 03:23:00;;;;;;;63.75;34.60;;;;;;;2.33;100.00;96872.72;2072597;28;20224;-72
2021/01/24 03:24:02;;;;;;;54.65;34.53;;;;;;;2.30;100.00;96873.34;2072592;28;20735;-72
2021/01/24 03:25:03;;;;;;;59.30;33.83;;;;;;;2.31;100.00;96874.88;2071680;28;20698;-73
2021/01/24 03:26:05;;;;;;;53.47;34.25;;;;;;;2.28;100.00;96870.22;2071887;28;20254;-72
2021/01/24 03:27:07;;;;;;;49.53;31.75;;;;;;;2.26;100.00;96860.78;2072429;28;20354;-72
2021/01/24 03:28:08;;;;;;;52.42;33.30;;;;;;;2.28;100.00;96864.97;2072167;28;20231;-72
2021/01/24 03:29:09;;;;;;;56.00;34.53;;;;;;;2.26;100.00;96863.41;2072582;28;20279;-72
2021/01/24 03:30:12;;;;;;;55.20;33.37;;;;;;;2.28;100.00;96862.34;2071944;28;20262;-72
2021/01/24 03:31:13;;;;;;;56.13;33.05;;;;;;;2.24;100.00;96857.66;2071818;28;20309;-71
2021/01/24 03:32:16;;;;;;;56.13;33.63;;;;;;;2.22;100.00;96851.91;2072485;28;20269;-72
2021/01/24 03:33:16;;;;;;;50.78;34.00;;;;;;;2.20;100.00;96856.69;2072441;28;20224;-72
2021/01/24 03:34:20;;;;;;;53.70;31.60;;;;;;;2.19;100.00;96857.00;2072403;28;20227;-73
2021/01/24 03:35:21;;;;;;;56.45;33.33;;;;;;;2.21;100.00;96854.84;2071693;28;20220;-72
2021/01/24 03:36:23;;;;;;;58.13;33.43;;;;;;;2.20;100.00;96861.19;2071406;28;20694;-73
2021/01/24 03:37:23;;;;;;;54.40;32.60;;;;;;;2.18;100.00;96860.69;2071816;28;20236;-72
2021/01/24 03:38:25;;;;;;;55.83;33.73;;;;;;;2.16;100.00;96855.72;2071634;28;20231;-73
2021/01/24 03:39:25;;;;;;;57.20;34.38;;;;;;;2.15;100.00;96859.41;2072246;28;20247;-72
2021/01/24 03:40:27;;;;;;;62.33;35.33;;;;;;;2.15;100.00;96854.16;2071576;28;20271;-72
2021/01/24 03:41:27;;;;;;;58.00;36.28;;;;;;;2.20;100.00;96846.16;2071659;28;20297;-73
2021/01/24 03:42:29;;;;;;;57.00;35.40;;;;;;;2.12;100.00;96825.06;2072393;28;20274;-72
2021/01/24 03:43:30;;;;;;;56.92;36.25;;;;;;;2.25;100.00;96840.78;2072259;28;20228;-73
2021/01/24 03:44:31;;;;;;;58.33;36.57;;;;;;;2.23;100.00;96836.91;2072437;28;20220;-72
2021/01/24 03:45:32;;;;;;;62.72;36.78;;;;;;;2.23;100.00;96837.69;2072411;28;20555;-72
2021/01/24 03:46:34;;;;;;;64.60;37.83;;;;;;;2.26;100.00;96831.06;2071403;28;20278;-72
2021/01/24 03:47:36;;;;;;;59.88;35.63;;;;;;;2.29;100.00;96834.94;2071537;28;20224;-72
2021/01/24 03:48:37;;;;;;;61.45;37.40;;;;;;;2.23;100.00;96834.28;2071849;28;20251;-75
2021/01/24 03:49:39;;;;;;;59.33;35.95;;;;;;;2.26;100.00;96823.94;2071700;28;20737;-72
2021/01/24 03:50:40;;;;;;;61.90;36.08;;;;;;;2.25;100.00;96827.63;2071636;28;20307;-72
2021/01/24 03:51:41;;;;;;;59.93;34.20;;;;;;;2.22;100.00;96820.34;2071434;28;20274;-73
2021/01/24 03:52:42;;;;;;;57.97;35.70;;;;;;;2.25;100.00;96825.00;2071479;28;20714;-72
2021/01/24 03:53:44;;;;;;;58.27;35.57;;;;;;;2.21;100.00;96833.78;2071512;28;20573;-72
2021/01/24 03:54:44;;;;;;;60.17;36.53;;;;;;;2.22;100.00;96840.63;2071502;28;20224;-72
2021/01/24 03:55:46;;;;;;;58.63;35.90;;;;;;;2.21;100.00;96844.31;2071648;28;20274;-72
2021/01/24 03:56:47;;;;;;;59.95;35.03;;;;;;;2.17;100.00;96833.63;2071516;28;20762;-72
2021/01/24 03:57:48;;;;;;;59.83;37.63;;;;;;;2.16;100.00;96831.25;2071663;28;20631;-72
2021/01/24 03:58:49;;;;;;;61.20;35.80;;;;;;;2.18;100.00;96839.66;2071591;28;20632;-72
2021/01/24 03:59:51;;;;;;;62.23;36.53;;;;;;;2.15;100.00;96827.84;2071743;28;20226;-72
2021/01/24 04:00:52;;;;;;;64.60;37.75;;;;;;;2.17;100.00;96833.63;2071176;28;20311;-74
2021/01/24 04:01:53;;;;;;;60.57;37.23;;;;;;;2.18;100.00;96834.41;2071458;28;20235;-73
2021/01/24 04:02:55;;;;;;;57.75;36.92;;;;;;;2.08;100.00;96830.09;2071504;28;20306;-73
2021/01/24 04:03:56;;;;;;;62.22;37.20;;;;;;;2.17;100.00;96838.88;2072229;28;20721;-72
2021/01/24 04:04:57;;;;;;;62.42;36.15;;;;;;;2.16;100.00;96833.91;2072195;28;20227;-73
2021/01/24 04:05:58;;;;;;;58.07;36.90;;;;;;;2.16;100.00;96832.03;2072330;28;20674;-72
2021/01/24 04:06:59;;;;;;;52.85;35.50;;;;;;;2.14;100.00;96828.94;2072289;28;20223;-72
2021/01/24 04:08:01;;;;;;;52.63;34.17;;;;;;;2.13;100.00;96834.50;2071385;28;20236;-72
2021/01/24 04:09:02;;;;;;;51.28;34.15;;;;;;;2.20;100.00;96829.63;2071830;28;21434;-73
2021/01/24 04:10:03;;;;;;;56.97;36.00;;;;;;;2.22;100.00;96830.09;2071513;28;20220;-72
2021/01/24 04:11:04;;;;;;;60.67;36.28;;;;;;;2.19;100.00;96825.44;2072270;28;20547;-72
2021/01/24 04:12:06;;;;;;;69.07;35.77;;;;;;;2.13;100.00;96824.75;2071090;28;20300;-73
2021/01/24 04:13:07;;;;;;;60.55;37.33;;;;;;;2.17;100.00;96827.56;2071232;28;20224;-73
2021/01/24 04:14:08;;;;;;;68.07;40.03;;;;;;;2.16;100.00;96826.78;2072163;28;20227;-70
2021/01/24 04:15:10;;;;;;;69.00;39.60;;;;;;;2.32;100.00;96821.97;2072117;28;20721;-71
2021/01/24 04:16:11;;;;;;;66.25;41.47;;;;;;;2.26;100.00;96821.31;2072218;28;20227;-71
2021/01/24 04:17:12;;;;;;;69.45;41.65;;;;;;;2.29;100.00;96821.78;2071355;28;20309;-71
2021/01/24 04:18:15;;;;;;;65.23;38.97;;;;;;;2.34;100.00;96811.13;2071569;28;20230;-71
2021/01/24 04:19:16;;;;;;;71.65;39.72;;;;;;;2.36;100.00;96816.91;2071501;28;20885;-70
2021/01/24 04:20:17;;;;;;;66.17;39.47;;;;;;;2.34;100.00;96806.66;2071415;28;20227;-71
2021/01/24 04:21:18;;;;;;;70.63;40.28;;;;;;;2.31;100.00;96806.47;2072167;28;20220;-70
2021/01/24 04:22:19;;;;;;;68.50;40.30;;;;;;;2.24;100.00;96805.03;2072265;28;20231;-70
2021/01/24 04:23:20;;;;;;;72.93;41.90;;;;;;;2.26;100.00;96810.03;2072172;28;20303;-70
2021/01/24 04:24:23;;;;;;;68.07;39.80;;;;;;;2.45;100.00;96812.50;2079320;28;20278;-71
2021/01/24 04:25:24;;;;;;;64.90;39.63;;;;;;;2.48;100.00;96806.63;2079250;28;20222;-71
2021/01/24 04:26:25;;;;;;;73.10;42.47;;;;;;;2.41;100.00;96800.97;2080218;28;20245;-70
2021/01/24 04:27:26;;;;;;;75.28;42.65;;;;;;;2.35;100.00;96807.47;2080352;28;20231;-70
2021/01/24 04:28:27;;;;;;;71.00;43.33;;;;;;;2.24;100.00;96805.03;2079987;28;20286;-71
2021/01/24 04:29:28;;;;;;;69.60;41.30;;;;;;;2.21;100.00;96805.63;2079752;28;20227;-70
2021/01/24 04:30:29;;;;;;;74.47;43.00;;;;;;;2.20;100.00;96806.72;2079582;28;20694;-70
2021/01/24 04:31:30;;;;;;;72.53;43.33;;;;;;;2.02;100.00;96772.69;2080304;28;20223;-70
2021/01/24 04:32:31;;;;;;;71.27;42.63;;;;;;;2.19;100.00;96802.53;2080337;28;20227;-71
2021/01/24 04:33:33;;;;;;;73.45;42.28;;;;;;;2.16;100.00;96803.09;2080294;28;20262;-72
2021/01/24 04:34:34;;;;;;;74.57;42.67;;;;;;;2.15;100.00;96804.19;2080378;28;20262;-71
2021/01/24 04:35:35;;;;;;;68.03;41.50;;;;;;;2.12;100.00;96804.78;2080314;28;20280;-70
2021/01/24 04:36:36;;;;;;;69.07;41.07;;;;;;;2.10;100.00;96801.69;2079958;28;20713;-71
2021/01/24 04:37:37;;;;;;;68.78;40.47;;;;;;;2.06;100.00;96800.69;2077662;28;20234;-72
2021/01/24 04:38:38;;;;;;;77.60;42.83;;;;;;;2.06;100.00;96803.34;2080201;28;20223;-71
2021/01/24 04:39:39;;;;;;;70.05;41.67;;;;;;;2.03;100.00;96793.41;2079400;28;20238;-72
2021/01/24 04:40:41;;;;;;;79.93;43.97;;;;;;;1.99;100.00;96787.19;2079677;28;20298;-72
2021/01/24 04:41:42;;;;;;;69.80;42.00;;;;;;;2.01;100.00;96787.69;2080115;28;20227;-71
2021/01/24 04:42:45;;;;;;;71.85;42.05;;;;;;;1.97;100.00;96787.47;2080213;28;20682;-72
2021/01/24 04:43:47;;;;;;;66.40;39.63;;;;;;;1.99;100.00;96789.81;2080241;28;20219;-72